| time (UTC) | temp C | wind direction | speed KPH | gust KPH | rain 1hr cm | rain 24hr cm | rain mn cm | humidity % | barometer mb |
| 20260504215015 | 17 | 290 | 8.0 | 17.7 | 0.03 | 0.05 | 0.05 | 46 | 1002.7 |
| 20260504214520 | 17 | 291 | 8.0 | 17.7 | 0.03 | 0.05 | 0.05 | 46 | 1002.8 |
| 20260504214017 | 17 | 313 | 9.7 | 19.3 | 0.03 | 0.05 | 0.05 | 45 | 1002.9 |
| 20260504213514 | 17 | 284 | 6.4 | 14.5 | 0.03 | 0.05 | 0.05 | 48 | 1003.0 |
| 20260504212514 | 17 | 309 | 9.7 | 14.5 | 0.03 | 0.05 | 0.05 | 47 | 1002.8 |
| 20260504212013 | 16 | 297 | 6.4 | 14.5 | 0.03 | 0.05 | 0.05 | 51 | 1003.0 |
| 20260504211523 | 16 | 302 | 8.0 | 14.5 | 0.03 | 0.05 | 0.05 | 51 | 1002.8 |
| 20260504211013 | 15 | 242 | 3.2 | 22.5 | 0.03 | 0.05 | 0.05 | 46 | 1002.9 |
| 20260504210513 | 15 | 198 | 6.4 | 22.5 | 0.03 | 0.05 | 0.05 | 48 | 1003.0 |
| 20260504210013 | 15 | 150 | 8.0 | 24.1 | 0.00 | 0.03 | 0.03 | 55 | 1003.4 |
| 20260504205514 | 15 | 193 | 12.9 | 38.6 | 0.00 | 0.03 | 0.03 | 53 | 1003.8 |
| 20260504205010 | 16 | 221 | 19.3 | 38.6 | 0.00 | 0.03 | 0.03 | 48 | 1003.8 |
| 20260504204516 | 17 | 277 | 6.4 | 14.5 | 0.00 | 0.03 | 0.03 | 44 | 1003.7 |
| 20260504204009 | 17 | 293 | 6.4 | 12.9 | 0.00 | 0.03 | 0.03 | 42 | 1003.6 |
| 20260504203511 | 17 | 326 | 3.2 | 12.9 | 0.00 | 0.03 | 0.03 | 44 | 1003.5 |
| 20260504202508 | 17 | 35 | 8.0 | 12.9 | 0.00 | 0.03 | 0.03 | 42 | 1003.5 |
| 20260504202008 | 17 | 355 | 6.4 | 17.7 | 0.00 | 0.03 | 0.03 | 44 | 1003.6 |
| 20260504201507 | 17 | 59 | 4.8 | 22.5 | 0.00 | 0.03 | 0.03 | 45 | 1003.5 |
| 20260504201007 | 17 | 74 | 11.3 | 22.5 | 0.00 | 0.03 | 0.03 | 45 | 1003.5 |
| 20260504200506 | 17 | 40 | 4.8 | 16.1 | 0.03 | 0.03 | 0.03 | 45 | 1003.6 |
| 20260504200006 | 17 | 38 | 4.8 | 29.0 | 0.03 | 0.03 | 0.03 | 43 | 1003.7 |
| 20260504195504 | 17 | 26 | 12.9 | 30.6 | 0.03 | 0.03 | 0.03 | 41 | 1003.7 |
| 20260504195003 | 17 | 78 | 16.1 | 30.6 | 0.03 | 0.03 | 0.03 | 41 | 1003.5 |
| 20260504194502 | 17 | 30 | 9.7 | 22.5 | 0.03 | 0.03 | 0.03 | 43 | 1003.3 |
| 20260504194001 | 17 | 360 | 14.5 | 38.6 | 0.03 | 0.03 | 0.03 | 41 | 1003.3 |
| 20260504193600 | 17 | 71 | 4.8 | 14.5 | 0.03 | 0.03 | 0.03 | 43 | 1002.9 |
| 20260504192559 | 18 | 19 | 4.8 | 17.7 | 0.03 | 0.03 | 0.03 | 42 | 1002.7 |
| 20260504192104 | 18 | 33 | 1.6 | 17.7 | 0.03 | 0.03 | 0.03 | 43 | 1002.3 |
| 20260504191604 | 18 | 24 | 4.8 | 14.5 | 0.03 | 0.03 | 0.03 | 45 | 1002.3 |
| 20260504191057 | 18 | 89 | 4.8 | 16.1 | 0.03 | 0.03 | 0.03 | 41 | 1002.1 |
| 20260504190556 | 18 | 13 | 6.4 | 33.8 | 0.00 | 0.00 | 0.00 | 38 | 1002.1 |
| 20260504190114 | 19 | 355 | 16.1 | 33.8 | 0.00 | 0.00 | 0.00 | 34 | 1001.9 |
| 20260504185558 | 19 | 43 | 6.4 | 25.7 | 0.00 | 0.00 | 0.00 | 29 | 1001.8 |
| 20260504185053 | 20 | 27 | 9.7 | 37.0 | 0.00 | 0.00 | 0.00 | 30 | 1001.6 |
| 20260504184611 | 20 | 36 | 17.7 | 37.0 | 0.00 | 0.00 | 0.00 | 28 | 1001.7 |
| 20260504184050 | 21 | 39 | 11.3 | 25.7 | 0.00 | 0.00 | 0.00 | 26 | 1001.7 |
| 20260504183550 | 22 | 347 | 4.8 | 14.5 | 0.00 | 0.00 | 0.00 | 24 | 1001.7 |
| 20260504182548 | 22 | 338 | 4.8 | 9.7 | 0.00 | 0.00 | 0.00 | 23 | 1001.5 |
| 20260504182050 | 22 | 309 | 4.8 | 16.1 | 0.00 | 0.00 | 0.00 | 23 | 1001.5 |
| 20260504181549 | 22 | 35 | 6.4 | 20.9 | 0.00 | 0.00 | 0.00 | 23 | 1001.6 |
| 20260504181048 | 22 | 5 | 9.7 | 20.9 | 0.00 | 0.00 | 0.00 | 23 | 1001.5 |
| 20260504180547 | 22 | 51 | 8.0 | 20.9 | 0.00 | 0.00 | 0.00 | 24 | 1001.6 |
| 20260504180052 | 22 | 5 | 9.7 | 24.1 | 0.00 | 0.00 | 0.00 | 24 | 1001.7 |
| 20260504175546 | 22 | 25 | 16.1 | 29.0 | 0.00 | 0.00 | 0.00 | 24 | 1001.7 |
| 20260504175047 | 23 | 5 | 14.5 | 29.0 | 0.00 | 0.00 | 0.00 | 23 | 1001.7 |
| 20260504174546 | 23 | 243 | 8.0 | 17.7 | 0.00 | 0.00 | 0.00 | 24 | 1001.7 |
| 20260504174046 | 23 | 227 | 4.8 | 17.7 | 0.00 | 0.00 | 0.00 | 22 | 1001.8 |
| 20260504173545 | 23 | 9 | 4.8 | 14.5 | 0.00 | 0.00 | 0.00 | 23 | 1001.9 |
| 20260504172545 | 23 | 30 | 6.4 | 25.7 | 0.00 | 0.00 | 0.00 | 23 | 1001.9 |
| 20260504172044 | 23 | 28 | 9.7 | 25.7 | 0.00 | 0.00 | 0.00 | 22 | 1002.1 |
| 20260504171544 | 23 | 325 | 16.1 | 25.7 | 0.00 | 0.00 | 0.00 | 22 | 1002.0 |
| 20260504171042 | 23 | 273 | 9.7 | 22.5 | 0.00 | 0.00 | 0.00 | 23 | 1001.9 |
| 20260504170544 | 22 | 288 | 6.4 | 22.5 | 0.00 | 0.00 | 0.00 | 24 | 1001.9 |
| 20260504151028 | 14 | 286 | 0.0 | 3.2 | 0.00 | 0.00 | 0.00 | 46 | 1002.8 |
| 20260504150529 | 13 | 286 | 0.0 | 3.2 | 0.00 | 0.00 | 0.00 | 46 | 1003.0 |
| 20260504141026 | 10 | 337 | 0.0 | 8.0 | 0.00 | 0.00 | 0.00 | 55 | 1003.4 |
| 20260504140526 | 9 | 335 | 3.2 | 8.0 | 0.00 | 0.00 | 0.00 | 56 | 1003.5 |
| 20260504130526 | 6 | 161 | 0.0 | 3.2 | 0.00 | 0.00 | 0.00 | 63 | 1003.6 |
| 20260504110516 | 5 | 326 | 0.0 | 1.6 | 0.00 | 0.00 | 0.00 | 64 | 1003.7 |
| 20260504100508 | 6 | 328 | 1.6 | 6.4 | 0.00 | 0.00 | 0.00 | 60 | 1004.1 |
| 20260504081557 | 7 | 334 | 0.0 | 3.2 | 0.00 | 0.00 | 0.00 | 57 | 1004.7 |
| 20260504081058 | 7 | 334 | 0.0 | 3.2 | 0.00 | 0.00 | 0.00 | 57 | 1004.8 |
| 20260504080559 | 7 | 360 | 1.6 | 3.2 | 0.00 | 0.00 | 0.00 | 56 | 1004.9 |
| 20260504050532 | 13 | 281 | 3.2 | 8.0 | 0.00 | 0.00 | 0.00 | 41 | 1005.9 |
| 20260504045525 | 13 | 300 | 3.2 | 8.0 | 0.00 | 0.00 | 0.00 | 39 | 1005.8 |
| 20260504045025 | 14 | 302 | 4.8 | 9.7 | 0.00 | 0.00 | 0.00 | 39 | 1005.8 |
| 20260504044526 | 14 | 315 | 6.4 | 12.9 | 0.00 | 0.00 | 0.00 | 39 | 1005.9 |
| 20260504044023 | 14 | 290 | 4.8 | 12.9 | 0.00 | 0.00 | 0.00 | 39 | 1006.0 |
| 20260504043522 | 15 | 282 | 3.2 | 8.0 | 0.00 | 0.00 | 0.00 | 39 | 1006.1 |
| 20260504042521 | 15 | 275 | 4.8 | 11.3 | 0.00 | 0.00 | 0.00 | 37 | 1006.0 |
| 20260504042019 | 15 | 273 | 4.8 | 22.5 | 0.00 | 0.00 | 0.00 | 36 | 1005.9 |
| 20260504041519 | 16 | 259 | 11.3 | 22.5 | 0.00 | 0.00 | 0.00 | 35 | 1005.8 |
| 20260504041017 | 16 | 360 | 6.4 | 17.7 | 0.00 | 0.00 | 0.00 | 35 | 1005.8 |
| 20260504040516 | 16 | 308 | 8.0 | 27.4 | 0.00 | 0.00 | 0.00 | 34 | 1005.7 |
| 20260504040015 | 17 | 65 | 20.9 | 27.4 | 0.00 | 0.00 | 0.00 | 33 | 1005.5 |
| 20260504035515 | 17 | 44 | 6.4 | 30.6 | 0.00 | 0.00 | 0.00 | 32 | 1005.6 |
| 20260504035013 | 17 | 71 | 19.3 | 30.6 | 0.00 | 0.00 | 0.00 | 31 | 1005.4 |
| 20260504034520 | 17 | 360 | 8.0 | 27.4 | 0.00 | 0.00 | 0.00 | 30 | 1005.8 |
| 20260504034011 | 17 | 33 | 12.9 | 22.5 | 0.00 | 0.00 | 0.00 | 28 | 1005.5 |
| 20260504033511 | 18 | 55 | 4.8 | 17.7 | 0.00 | 0.00 | 0.00 | 27 | 1005.6 |
| 20260504032511 | 18 | 61 | 8.0 | 22.5 | 0.00 | 0.00 | 0.00 | 26 | 1005.5 |
| 20260504032011 | 18 | 74 | 11.3 | 22.5 | 0.00 | 0.00 | 0.00 | 25 | 1005.4 |
| 20260504031512 | 18 | 65 | 12.9 | 22.5 | 0.00 | 0.00 | 0.00 | 26 | 1005.3 |
| 20260504031010 | 17 | 15 | 8.0 | 17.7 | 0.00 | 0.00 | 0.00 | 27 | 1005.2 |
| 20260504030512 | 17 | 62 | 1.6 | 6.4 | 0.00 | 0.00 | 0.00 | 29 | 1005.2 |
| 20260504030010 | 17 | 65 | 1.6 | 9.7 | 0.00 | 0.00 | 0.00 | 30 | 1005.1 |
| 20260504025512 | 17 | 30 | 3.2 | 9.7 | 0.00 | 0.00 | 0.00 | 31 | 1005.1 |
| 20260504025010 | 17 | 360 | 1.6 | 6.4 | 0.00 | 0.00 | 0.00 | 32 | 1005.0 |
| 20260504024530 | 17 | 26 | 0.0 | 3.2 | 0.00 | 0.00 | 0.00 | 31 | 1004.9 |
| 20260504024009 | 17 | 26 | 0.0 | 12.9 | 0.00 | 0.00 | 0.00 | 31 | 1004.8 |
| 20260504023509 | 17 | 40 | 1.6 | 4.8 | 0.00 | 0.00 | 0.00 | 34 | 1004.9 |
| 20260504022509 | 17 | 181 | 1.6 | 4.8 | 0.00 | 0.00 | 0.00 | 35 | 1004.6 |
| 20260504022014 | 17 | 180 | 0.0 | 3.2 | 0.00 | 0.00 | 0.00 | 34 | 1004.6 |
| 20260504021506 | 17 | 180 | 1.6 | 3.2 | 0.00 | 0.00 | 0.00 | 34 | 1004.4 |
| 20260504021005 | 18 | 180 | 1.6 | 3.2 | 0.00 | 0.00 | 0.00 | 34 | 1004.4 |
| 20260504020503 | 18 | 180 | 0.0 | 3.2 | 0.00 | 0.00 | 0.00 | 31 | 1004.4 |
| 20260504020003 | 18 | 180 | 0.0 | 0.0 | 0.00 | 0.00 | 0.00 | 30 | 1004.4 |
| 20260504015601 | 18 | 180 | 0.0 | 0.0 | 0.00 | 0.00 | 0.00 | 29 | 1004.4 |
| 20260504015100 | 19 | 180 | 0.0 | 3.2 | 0.00 | 0.00 | 0.00 | 30 | 1004.5 |
| 20260504014600 | 19 | 180 | 0.0 | 3.2 | 0.00 | 0.00 | 0.00 | 28 | 1004.4 |
| 20260504014058 | 20 | 180 | 0.0 | 3.2 | 0.00 | 0.00 | 0.00 | 27 | 1004.5 |
| 20260504013557 | 20 | 180 | 0.0 | 3.2 | 0.00 | 0.00 | 0.00 | 28 | 1004.5 |
| 20260504012600 | 20 | 180 | 0.0 | 1.6 | 0.00 | 0.00 | 0.00 | 25 | 1004.4 |
| 20260504012059 | 20 | 180 | 0.0 | 0.0 | 0.00 | 0.00 | 0.00 | 26 | 1004.5 |
| 20260504011556 | 20 | 180 | 0.0 | 0.0 | 0.00 | 0.00 | 0.00 | 28 | 1004.5 |
| 20260504011056 | 21 | 180 | 0.0 | 3.2 | 0.00 | 0.00 | 0.00 | 26 | 1004.5 |
| 20260504010556 | 21 | 180 | 0.0 | 4.8 | 0.00 | 0.00 | 0.00 | 24 | 1004.4 |
| 20260504010056 | 21 | 180 | 0.0 | 4.8 | 0.00 | 0.00 | 0.00 | 26 | 1004.4 |
| 20260504005555 | 21 | 180 | 3.2 | 4.8 | 0.00 | 0.00 | 0.00 | 23 | 1004.4 |
| 20260504005055 | 21 | 180 | 1.6 | 4.8 | 0.00 | 0.00 | 0.00 | 25 | 1004.4 |
| 20260504004608 | 21 | 190 | 0.0 | 1.6 | 0.00 | 0.00 | 0.00 | 24 | 1004.5 |
| 20260504004055 | 22 | 190 | 0.0 | 1.6 | 0.00 | 0.00 | 0.00 | 24 | 1004.6 |
| 20260504003554 | 22 | 190 | 0.0 | 0.0 | 0.00 | 0.00 | 0.00 | 24 | 1004.5 |
| 20260504002553 | 22 | 190 | 0.0 | 1.6 | 0.00 | 0.00 | 0.00 | 23 | 1004.5 |
| 20260504002054 | 22 | 190 | 0.0 | 3.2 | 0.00 | 0.00 | 0.00 | 23 | 1004.5 |
| 20260504001557 | 22 | 190 | 0.0 | 6.4 | 0.00 | 0.00 | 0.00 | 24 | 1004.6 |
| 20260504001055 | 22 | 190 | 1.6 | 6.4 | 0.00 | 0.00 | 0.00 | 21 | 1004.6 |
| 20260504000553 | 22 | 235 | 1.6 | 4.8 | 0.00 | 0.00 | 0.00 | 22 | 1004.7 |
| 20260504000054 | 22 | 236 | 1.6 | 6.4 | 0.00 | 0.00 | 0.00 | 21 | 1004.7 |
| 20260503235552 | 22 | 236 | 1.6 | 11.3 | 0.00 | 0.00 | 0.00 | 20 | 1004.7 |
| 20260503235055 | 22 | 274 | 6.4 | 16.1 | 0.00 | 0.00 | 0.00 | 18 | 1004.6 |
| 20260503234552 | 22 | 265 | 8.0 | 20.9 | 0.00 | 0.00 | 0.00 | 17 | 1004.7 |
| 20260503234053 | 22 | 301 | 6.4 | 27.4 | 0.00 | 0.00 | 0.00 | 19 | 1004.7 |
| 20260503233552 | 22 | 268 | 11.3 | 32.2 | 0.00 | 0.00 | 0.00 | 18 | 1004.8 |
| 20260503232554 | 22 | 288 | 14.5 | 25.7 | 0.00 | 0.00 | 0.00 | 17 | 1004.8 |
| 20260503232051 | 22 | 281 | 16.1 | 25.7 | 0.00 | 0.00 | 0.00 | 17 | 1004.6 |
| 20260503231555 | 23 | 304 | 14.5 | 27.4 | 0.00 | 0.00 | 0.00 | 17 | 1004.5 |
| 20260503231052 | 23 | 315 | 17.7 | 27.4 | 0.00 | 0.00 | 0.00 | 17 | 1004.5 |
| 20260503230550 | 23 | 277 | 6.4 | 24.1 | 0.00 | 0.00 | 0.00 | 19 | 1004.6 |
| 20260503230052 | 23 | 306 | 11.3 | 24.1 | 0.00 | 0.00 | 0.00 | 18 | 1004.5 |
| 20260503225549 | 23 | 294 | 9.7 | 24.1 | 0.00 | 0.00 | 0.00 | 18 | 1004.5 |
| 20260503225048 | 23 | 279 | 8.0 | 17.7 | 0.00 | 0.00 | 0.00 | 20 | 1004.5 |
| 20260503224548 | 23 | 254 | 4.8 | 14.5 | 0.00 | 0.00 | 0.00 | 19 | 1004.6 |
| 20260503224048 | 23 | 266 | 4.8 | 20.9 | 0.00 | 0.00 | 0.00 | 19 | 1004.5 |
| 20260503223548 | 23 | 312 | 8.0 | 20.9 | 0.00 | 0.00 | 0.00 | 18 | 1004.7 |
| 20260503223148 | 23 | 306 | 8.0 | 14.5 | 0.00 | 0.00 | 0.00 | 18 | 1004.6 |
| 20260503222545 | 23 | 296 | 6.4 | 12.9 | 0.00 | 0.00 | 0.00 | 19 | 1004.8 |
| 20260503222047 | 23 | 284 | 6.4 | 19.3 | 0.00 | 0.00 | 0.00 | 18 | 1004.8 |
| 20260503221551 | 23 | 275 | 11.3 | 19.3 | 0.00 | 0.00 | 0.00 | 18 | 1004.9 |
| 20260503221050 | 23 | 283 | 9.7 | 19.3 | 0.00 | 0.00 | 0.00 | 19 | 1004.9 |
| 20260503220544 | 23 | 360 | 6.4 | 19.3 | 0.00 | 0.00 | 0.00 | 18 | 1005.1 |
| 20260503220042 | 23 | 328 | 8.0 | 20.9 | 0.00 | 0.00 | 0.00 | 18 | 1005.3 |
| 20260503215541 | 23 | 290 | 9.7 | 22.5 | 0.00 | 0.00 | 0.00 | 18 | 1005.4 |